Kaio Maru — JD2067 — position and weather

sailwx.info

Track history (hours):
 
Tides and Currents Weather Stations Pressure Air Temp Water Temp Dewpoint Dewpoint Depression Visibility Wind Speed Wind Dir Waves Ship Positions

Kaio Maru

Last reported at 2018-Apr-26 03:28 UTC. Time now 2018-Apr-26 03:32 UTC.
Position N 35°38' E 139°45'.

Length 36 m; draft 3.2 m.

Type: Tug. MMSI: 431001455.

Date/timePositionNaut miles runAvg speedWind from/ knotsBaromVisibWave heightAir tempDewpointWater temp
2018-Apr-26 03:28N 35°38' E 139°45'0 0.0
2018-Apr-26 02:58N 35°38' E 139°45'0 0.0
2018-Apr-26 02:30N 35°38' E 139°45'0 0.0
2018-Apr-26 02:00N 35°38' E 139°45'0 0.0
2018-Apr-26 01:30N 35°38' E 139°45'0 0.0
2018-Apr-26 01:00N 35°38' E 139°45'0 0.0
2018-Apr-26 00:30N 35°38' E 139°45'0 0.0
2018-Apr-26 00:00N 35°38' E 139°45'1 2.7
2018-Apr-25 23:30N 35°37' E 139°46'1 2.0
2018-Apr-25 23:00N 35°36' E 139°47'3 5.9
2018-Apr-25 22:31N 35°34' E 139°49'4 7.2
2018-Apr-25 22:00N 35°37' E 139°46'2 3.2
2018-Apr-25 21:30N 35°38' E 139°45'0 0.0
2018-Apr-25 21:00N 35°38' E 139°45'0 0.0
2018-Apr-25 20:30N 35°38' E 139°45'0 0.0
2018-Apr-25 20:00N 35°38' E 139°45'0 0.0
2018-Apr-25 19:30N 35°38' E 139°45'0 0.0
2018-Apr-25 19:00N 35°38' E 139°45'0 0.0
2018-Apr-25 18:30N 35°38' E 139°45'0 0.0
2018-Apr-25 18:00N 35°38' E 139°45'0 0.0
2018-Apr-25 17:30N 35°38' E 139°45'0 0.0
2018-Apr-25 17:00N 35°38' E 139°45'0 0.0
2018-Apr-25 16:30N 35°38' E 139°45'0 0.0
2018-Apr-25 16:00N 35°38' E 139°45'0 0.0
2018-Apr-25 15:30N 35°38' E 139°45'0 0.0
2018-Apr-25 15:00N 35°38' E 139°45'0 0.0
2018-Apr-25 14:30N 35°38' E 139°45'0 0.0
2018-Apr-25 14:00N 35°38' E 139°45'0 0.0
2018-Apr-25 13:30N 35°38' E 139°45'0 0.0
2018-Apr-25 13:00N 35°38' E 139°45'0 0.0
2018-Apr-25 12:30N 35°38' E 139°45'0 0.0
2018-Apr-25 12:00N 35°38' E 139°45'0 0.0
2018-Apr-25 11:30N 35°38' E 139°45'0 0.0
2018-Apr-25 11:00N 35°38' E 139°45'0 0.0
2018-Apr-25 10:30N 35°38' E 139°45'1 1.9
2018-Apr-25 10:01N 35°37' E 139°46'3 6.9
2018-Apr-25 09:31N 35°35' E 139°48'0 0.8
2018-Apr-25 09:00N 35°34' E 139°48'4 7.7
2018-Apr-25 08:30N 35°38' E 139°46'0 0.9
2018-Apr-25 07:58N 35°38' E 139°45'0 0.0
2018-Apr-25 07:30N 35°38' E 139°45'0 0.0
2018-Apr-25 06:55N 35°38' E 139°45'0 0.0
2018-Apr-25 06:29N 35°38' E 139°45'0 0.0
2018-Apr-25 05:53N 35°38' E 139°45'0 0.0
2018-Apr-25 05:30N 35°38' E 139°45'0 0.0
2018-Apr-25 05:00N 35°38' E 139°45'0 0.0
2018-Apr-25 04:30N 35°38' E 139°45'0 0.0
2018-Apr-25 04:00N 35°38' E 139°45'0 0.0
2018-Apr-25 03:30N 35°38' E 139°45'0 0.0
2018-Apr-25 03:00N 35°38' E 139°45'0 0.0
2018-Apr-25 02:30N 35°38' E 139°45'0 0.0
2018-Apr-25 01:56N 35°38' E 139°45'0 0.0
2018-Apr-25 01:30N 35°38' E 139°45'0 0.0
2018-Apr-25 01:00N 35°38' E 139°45'0 0.0
2018-Apr-25 00:30N 35°38' E 139°45'0 0.0
2018-Apr-24 23:58N 35°38' E 139°45'0 0.0
2018-Apr-24 23:28N 35°38' E 139°45'0 0.0
2018-Apr-24 23:00N 35°38' E 139°45'2 4.0
2018-Apr-24 22:30N 35°36' E 139°46'1 2.2
2018-Apr-24 21:59N 35°36' E 139°47'0 0.3
2018-Apr-24 21:30N 35°36' E 139°48'1 2.5
2018-Apr-24 21:00N 35°37' E 139°47'1 1.3
2018-Apr-24 20:30N 35°37' E 139°48'1 1.4
2018-Apr-24 20:00N 35°36' E 139°47'1 1.9
2018-Apr-24 19:31N 35°37' E 139°46'2 2.6
2018-Apr-24 18:56N 35°38' E 139°45'0 0.0
2018-Apr-24 18:29N 35°38' E 139°45'0 0.0
2018-Apr-24 17:29N 35°38' E 139°45'0 0.0
2018-Apr-24 16:53N 35°38' E 139°45'0 0.0
2018-Apr-24 16:30N 35°38' E 139°45'0 0.0
2018-Apr-24 15:59N 35°38' E 139°45'0 0.0
2018-Apr-24 15:26N 35°38' E 139°45'0 0.0
2018-Apr-24 15:00N 35°38' E 139°45'0 0.0
2018-Apr-24 14:27N 35°38' E 139°45'0 0.0
2018-Apr-24 14:01N 35°38' E 139°45'0 0.0
2018-Apr-24 13:31N 35°38' E 139°45'0 0.0
2018-Apr-24 12:55N 35°38' E 139°45'0 0.0
2018-Apr-24 11:22N 35°38' E 139°45'0 0.0
2018-Apr-24 11:00N 35°38' E 139°45'0 0.0
2018-Apr-24 10:30N 35°38' E 139°45'0 0.0
2018-Apr-24 10:00N 35°38' E 139°45'0 0.0
2018-Apr-24 09:30N 35°38' E 139°45'0 0.0
2018-Apr-24 08:55N 35°38' E 139°45'0 0.0
2018-Apr-24 08:30N 35°38' E 139°45'0 0.0
2018-Apr-24 07:55N 35°38' E 139°45'0 0.0
2018-Apr-24 07:26N 35°38' E 139°45'0 0.0
2018-Apr-24 06:42N 35°38' E 139°45'0 0.0
2018-Apr-24 06:25N 35°38' E 139°45'0 0.0
2018-Apr-24 05:46N 35°38' E 139°45'0 0.0
2018-Apr-24 05:26N 35°38' E 139°45'0 0.0
2018-Apr-24 05:00N 35°38' E 139°45'0 0.0
2018-Apr-24 04:30N 35°38' E 139°45'0 0.0
2018-Apr-24 03:58N 35°38' E 139°45'0 0.0
2018-Apr-24 03:29N 35°38' E 139°45'0 0.0
2018-Apr-24 02:58N 35°38' E 139°45'0 0.0
2018-Apr-24 02:30N 35°38' E 139°45'0 0.0
2018-Apr-24 01:57N 35°38' E 139°45'0 0.0
2018-Apr-24 01:30N 35°38' E 139°45'0 0.0
2018-Apr-24 01:00N 35°38' E 139°45'0 0.0
2018-Apr-24 00:30N 35°38' E 139°45'0 0.0
2018-Apr-23 23:59N 35°38' E 139°45'0 0.0
2018-Apr-23 23:30N 35°38' E 139°45'0 0.0
2018-Apr-23 23:00N 35°38' E 139°45'0 0.0
2018-Apr-23 22:30N 35°38' E 139°45'0 0.0
2018-Apr-23 22:00N 35°38' E 139°45'0 0.0
2018-Apr-23 21:30N 35°38' E 139°45'0 0.0
2018-Apr-23 21:00N 35°38' E 139°45'0 0.0
2018-Apr-23 20:30N 35°38' E 139°45'0 0.0
2018-Apr-23 20:00N 35°38' E 139°45'0 0.0
2018-Apr-23 19:30N 35°38' E 139°45'0 0.0
2018-Apr-23 19:00N 35°38' E 139°45'0 0.0
2018-Apr-23 18:30N 35°38' E 139°45'0 0.0
2018-Apr-23 18:00N 35°38' E 139°45'0 0.0
2018-Apr-23 17:30N 35°38' E 139°45'0 0.0
2018-Apr-23 17:00N 35°38' E 139°45'0 0.0
2018-Apr-23 16:29N 35°38' E 139°45'0 0.0
2018-Apr-23 16:00N 35°38' E 139°45'0 0.0
2018-Apr-23 15:30N 35°38' E 139°45'0 0.0
2018-Apr-23 15:00N 35°38' E 139°45'0 0.0
2018-Apr-23 14:30N 35°38' E 139°45'0 0.0
2018-Apr-23 14:00N 35°38' E 139°45'0 0.0
2018-Apr-23 13:30N 35°38' E 139°45'0 0.0
2018-Apr-23 13:00N 35°38' E 139°45'0 0.0
2018-Apr-23 12:30N 35°38' E 139°45'0 0.0
2018-Apr-23 12:00N 35°38' E 139°45'0 0.0
2018-Apr-23 11:30N 35°38' E 139°45'0 0.0
2018-Apr-23 11:00N 35°38' E 139°45'0 0.0
2018-Apr-23 10:30N 35°38' E 139°45'0 0.0
2018-Apr-23 10:00N 35°38' E 139°45'0 0.0
2018-Apr-23 09:29N 35°38' E 139°45'0 0.0
2018-Apr-23 08:59N 35°38' E 139°45'0 0.0
2018-Apr-23 08:30N 35°38' E 139°45'0 0.0
2018-Apr-23 08:00N 35°38' E 139°45'0 0.0
2018-Apr-23 07:30N 35°38' E 139°45'0 0.0
2018-Apr-23 07:00N 35°38' E 139°45'0 0.0
2018-Apr-23 06:30N 35°38' E 139°45'0 0.0
2018-Apr-23 06:00N 35°38' E 139°45'0 0.0
2018-Apr-23 05:30N 35°38' E 139°45'0 0.0
2018-Apr-23 05:00N 35°38' E 139°45'0 0.0
2018-Apr-23 04:30N 35°38' E 139°45'0 0.0
2018-Apr-23 04:00N 35°38' E 139°45'0 0.0
2018-Apr-23 03:30N 35°38' E 139°45'0 0.0
2018-Apr-23 02:58N 35°38' E 139°45'0 0.0
2018-Apr-23 02:30N 35°38' E 139°45'0 0.0
2018-Apr-23 02:00N 35°38' E 139°45'0 0.0
2018-Apr-23 01:29N 35°38' E 139°45'0 0.0
2018-Apr-23 01:00N 35°38' E 139°45'0 0.0
2018-Apr-23 00:30N 35°38' E 139°45'0 0.0
2018-Apr-22 23:59N 35°38' E 139°45'2 3.9
2018-Apr-22 23:30N 35°36' E 139°46'0 0.2
2018-Apr-22 23:00N 35°36' E 139°46'3 5.0
2018-Apr-22 22:30N 35°34' E 139°48'1 3.0
2018-Apr-22 22:00N 35°35' E 139°47'3 5.9
2018-Apr-22 21:30N 35°38' E 139°46'0 0.0
2018-Apr-22 20:58N 35°38' E 139°46'0 0.0
2018-Apr-22 20:30N 35°38' E 139°46'0 0.0
2018-Apr-22 20:00N 35°38' E 139°46'0 0.0
2018-Apr-22 19:30N 35°38' E 139°46'0 0.0
2018-Apr-22 19:00N 35°38' E 139°46'0 0.0
2018-Apr-22 18:30N 35°38' E 139°46'0 0.0
2018-Apr-22 18:00N 35°38' E 139°46'0 0.0
2018-Apr-22 17:30N 35°38' E 139°46'0 0.0
2018-Apr-22 17:00N 35°38' E 139°46'0 0.0
2018-Apr-22 16:30N 35°38' E 139°46'0 0.0
2018-Apr-22 16:00N 35°38' E 139°46'0 0.0
2018-Apr-22 15:30N 35°38' E 139°46'0 0.0
2018-Apr-22 15:00N 35°38' E 139°46'0 0.0
2018-Apr-22 14:28N 35°38' E 139°46'0 0.0
2018-Apr-22 14:00N 35°38' E 139°46'0 0.0
2018-Apr-22 13:30N 35°38' E 139°46'0 0.0
2018-Apr-22 12:57N 35°38' E 139°46'0 0.0
2018-Apr-22 12:30N 35°38' E 139°46'0 0.0
2018-Apr-22 12:00N 35°38' E 139°46'0 0.0
2018-Apr-22 11:30N 35°38' E 139°46'0 0.0
2018-Apr-22 11:00N 35°38' E 139°46'0 0.0
2018-Apr-22 10:29N 35°38' E 139°46'2 3.5
2018-Apr-22 10:00N 35°37' E 139°46'0 0.2
2018-Apr-22 09:30N 35°37' E 139°46'1 2.9
2018-Apr-22 09:00N 35°36' E 139°47'4 7.5
2018-Apr-22 08:31N 35°33' E 139°51'612.8
2018-Apr-22 08:00N 35°38' E 139°46'0 0.3
2018-Apr-22 07:28N 35°38' E 139°45'0 0.0
2018-Apr-22 07:00N 35°38' E 139°45'0 0.0
2018-Apr-22 06:30N 35°38' E 139°45'0 0.0
2018-Apr-22 06:00N 35°38' E 139°45'0 0.0
2018-Apr-22 05:30N 35°38' E 139°45'0 0.0
2018-Apr-22 05:00N 35°38' E 139°45'0 0.0
2018-Apr-22 04:30N 35°38' E 139°45'0 0.0
2018-Apr-22 03:59N 35°38' E 139°45'0 0.0
2018-Apr-22 03:30N 35°38' E 139°45'0 0.0
2018-Apr-22 02:58N 35°38' E 139°45'0 0.0
2018-Apr-22 02:30N 35°38' E 139°45'0 0.0
2018-Apr-22 01:54N 35°38' E 139°45'0 0.0
2018-Apr-22 01:30N 35°38' E 139°45'0 0.0
2018-Apr-22 00:58N 35°38' E 139°45'0 0.0
2018-Apr-22 00:30N 35°38' E 139°45'0 0.0
2018-Apr-21 23:56N 35°38' E 139°45'0 0.0
2018-Apr-21 23:29N 35°38' E 139°45'0 0.0
2018-Apr-21 23:00N 35°38' E 139°45'0 0.0
2018-Apr-21 22:27N 35°38' E 139°45'0 0.0
2018-Apr-21 22:00N 35°38' E 139°45'0 0.0
2018-Apr-21 21:25N 35°38' E 139°45'0 0.0
2018-Apr-21 20:58N 35°38' E 139°45'0 0.0
2018-Apr-21 20:30N 35°38' E 139°45'0 0.0
2018-Apr-21 20:00N 35°38' E 139°45'0 0.0
2018-Apr-21 19:30N 35°38' E 139°45'0 0.0
2018-Apr-21 19:00N 35°38' E 139°45'0 0.0
2018-Apr-21 18:30N 35°38' E 139°45'0 0.0
2018-Apr-21 18:00N 35°38' E 139°45'0 0.0
2018-Apr-21 17:30N 35°38' E 139°45'0 0.0
2018-Apr-21 16:59N 35°38' E 139°45'0 0.0
2018-Apr-21 16:30N 35°38' E 139°45'0 0.0
2018-Apr-21 15:59N 35°38' E 139°45'0 0.0
2018-Apr-21 15:29N 35°38' E 139°45'0 0.0
2018-Apr-21 15:00N 35°38' E 139°45'0 0.0
2018-Apr-21 14:28N 35°38' E 139°45'0 0.0
2018-Apr-21 13:59N 35°38' E 139°45'0 0.0
2018-Apr-21 13:26N 35°38' E 139°45'0 0.0
2018-Apr-21 13:00N 35°38' E 139°45'0 0.0
2018-Apr-21 12:30N 35°38' E 139°45'0 0.0
2018-Apr-21 12:00N 35°38' E 139°45'3 5.1
2018-Apr-21 11:30N 35°36' E 139°47'0 1.0
2018-Apr-21 11:00N 35°36' E 139°47'1 2.2
2018-Apr-21 10:30N 35°37' E 139°46'2 3.5
2018-Apr-21 10:00N 35°38' E 139°46'2 3.9
2018-Apr-21 09:29N 35°36' E 139°46'1 2.8
2018-Apr-21 09:00N 35°35' E 139°47'2 4.7
2018-Apr-21 08:30N 35°34' E 139°50'5 9.5
2018-Apr-21 08:00N 35°38' E 139°46'1 1.0
2018-Apr-21 07:23N 35°38' E 139°45'0 0.0
2018-Apr-21 06:48N 35°38' E 139°45'0 0.0
2018-Apr-21 06:29N 35°38' E 139°45'0 0.0
2018-Apr-21 03:50N 35°38' E 139°45'0 0.0
2018-Apr-21 03:29N 35°38' E 139°45'0 0.0
2018-Apr-21 02:56N 35°38' E 139°45'0 0.0
2018-Apr-21 02:22N 35°38' E 139°45'0 0.0
2018-Apr-21 01:54N 35°38' E 139°45'0 0.0
2018-Apr-21 01:30N 35°38' E 139°45'0 0.0
2018-Apr-21 00:59N 35°38' E 139°45'0 0.0
2018-Apr-21 00:30N 35°38' E 139°45'0 0.0
2018-Apr-21 00:00N 35°38' E 139°45'1 2.5
2018-Apr-20 23:30N 35°37' E 139°46'1 2.5
2018-Apr-20 23:00N 35°36' E 139°46'2 3.1
2018-Apr-20 22:30N 35°35' E 139°48'1 1.9
2018-Apr-20 22:01N 35°36' E 139°47'3 5.7
2018-Apr-20 21:30N 35°38' E 139°46'0 0.0
2018-Apr-20 21:00N 35°38' E 139°46'0 0.0
2018-Apr-20 20:30N 35°38' E 139°46'0 0.0
2018-Apr-20 20:00N 35°38' E 139°46'0 0.0
2018-Apr-20 19:28N 35°38' E 139°46'0 0.0
2018-Apr-20 19:00N 35°38' E 139°46'0 0.0
2018-Apr-20 18:28N 35°38' E 139°46'0 0.0
2018-Apr-20 18:00N 35°38' E 139°46'0 0.0
2018-Apr-20 17:30N 35°38' E 139°46'0 0.0
2018-Apr-20 17:00N 35°38' E 139°46'0 0.0
2018-Apr-20 16:30N 35°38' E 139°46'0 0.0
2018-Apr-20 16:00N 35°38' E 139°46'0 0.0
2018-Apr-20 15:30N 35°38' E 139°46'0 0.0
2018-Apr-20 15:00N 35°38' E 139°46'0 0.0
2018-Apr-20 14:30N 35°38' E 139°46'0 0.0
2018-Apr-20 14:00N 35°38' E 139°46'0 0.0
2018-Apr-20 13:30N 35°38' E 139°46'0 0.0
2018-Apr-20 13:00N 35°38' E 139°46'0 0.0
2018-Apr-20 12:30N 35°38' E 139°46'0 0.0
2018-Apr-20 12:00N 35°38' E 139°46'0 0.0
2018-Apr-20 11:29N 35°38' E 139°46'0 0.0
2018-Apr-20 11:00N 35°38' E 139°46'0 0.0
2018-Apr-20 10:30N 35°38' E 139°46'0 0.0
2018-Apr-20 10:00N 35°38' E 139°46'0 0.0
2018-Apr-20 09:30N 35°38' E 139°46'0 0.0
2018-Apr-20 09:00N 35°38' E 139°46'0 0.0
2018-Apr-20 08:30N 35°38' E 139°46'0 0.0
2018-Apr-20 08:00N 35°38' E 139°46'0 0.0
2018-Apr-20 07:30N 35°38' E 139°46'0 0.0
2018-Apr-20 06:55N 35°38' E 139°46'0 0.0
2018-Apr-20 06:30N 35°38' E 139°46'0 0.0
2018-Apr-20 05:59N 35°38' E 139°46'0 0.0
2018-Apr-20 05:28N 35°38' E 139°46'1 1.5
2018-Apr-20 05:00N 35°39' E 139°46'0 0.2
2018-Apr-20 04:30N 35°39' E 139°46'1 1.0
2018-Apr-20 03:41N 35°38' E 139°46'0 0.0
2018-Apr-20 03:30N 35°38' E 139°46'0 0.0
2018-Apr-20 03:00N 35°38' E 139°46'0 0.0
2018-Apr-20 02:30N 35°38' E 139°46'0 0.0
2018-Apr-20 02:00N 35°38' E 139°46'0 0.0
2018-Apr-20 01:30N 35°38' E 139°46'0 0.0
2018-Apr-20 01:00N 35°38' E 139°46'0 0.7
2018-Apr-20 00:30N 35°39' E 139°46'0 0.7
2018-Apr-19 23:58N 35°38' E 139°45'0 0.0
2018-Apr-19 23:29N 35°38' E 139°45'0 0.0
2018-Apr-19 23:01N 35°38' E 139°45'0 0.0
2018-Apr-19 22:30N 35°38' E 139°45'0 0.0
2018-Apr-19 22:00N 35°38' E 139°45'0 0.0
2018-Apr-19 21:29N 35°38' E 139°45'0 0.0
2018-Apr-19 20:58N 35°38' E 139°45'0 0.0
2018-Apr-19 20:22N 35°38' E 139°45'0 0.0
2018-Apr-19 19:55N 35°38' E 139°45'0 0.0
2018-Apr-19 19:30N 35°38' E 139°45'0 0.0
2018-Apr-19 18:57N 35°38' E 139°45'0 0.0
2018-Apr-19 18:30N 35°38' E 139°45'0 0.0
2018-Apr-19 18:00N 35°38' E 139°45'0 0.0
2018-Apr-19 17:27N 35°38' E 139°45'0 0.0
2018-Apr-19 16:59N 35°38' E 139°45'0 0.0
2018-Apr-19 16:28N 35°38' E 139°45'0 0.0
2018-Apr-19 15:59N 35°38' E 139°45'0 0.0
2018-Apr-19 15:30N 35°38' E 139°45'0 0.0
2018-Apr-19 15:00N 35°38' E 139°45'0 0.0
2018-Apr-19 14:29N 35°38' E 139°45'0 0.0
2018-Apr-19 14:00N 35°38' E 139°45'0 0.0
2018-Apr-19 13:29N 35°38' E 139°45'0 0.0
2018-Apr-19 13:00N 35°38' E 139°45'0 0.0
2018-Apr-19 12:28N 35°38' E 139°45'0 0.0
2018-Apr-19 11:59N 35°38' E 139°45'0 0.0
2018-Apr-19 11:29N 35°38' E 139°45'2 4.8
2018-Apr-19 11:00N 35°36' E 139°46'0 0.8
2018-Apr-19 10:30N 35°36' E 139°46'0 0.5
2018-Apr-19 10:00N 35°36' E 139°47'1 2.1
2018-Apr-19 09:30N 35°35' E 139°48'1 1.4
2018-Apr-19 09:00N 35°34' E 139°48'3 5.8
2018-Apr-19 08:30N 35°37' E 139°46'2 1.4
2018-Apr-19 07:27N 35°38' E 139°46'0 0.0
2018-Apr-19 05:48N 35°38' E 139°46'0 0.0
2018-Apr-19 05:28N 35°38' E 139°46'0 0.0
2018-Apr-19 05:00N 35°38' E 139°46'0 0.0
2018-Apr-19 04:30N 35°38' E 139°46'0 0.0
2018-Apr-19 03:57N 35°38' E 139°46'0 0.0
2018-Apr-19 03:28N 35°38' E 139°46'0 0.0
2018-Apr-19 03:00N 35°38' E 139°46'0 0.0
2018-Apr-19 02:30N 35°38' E 139°46'0 0.0
2018-Apr-19 01:59N 35°38' E 139°46'0 0.0
2018-Apr-19 01:30N 35°38' E 139°46'0 0.0
2018-Apr-19 00:58N 35°38' E 139°46'0 0.0
2018-Apr-19 00:30N 35°38' E 139°46'0 0.0
2018-Apr-19 00:00N 35°38' E 139°46'0 0.0
2018-Apr-18 23:30N 35°38' E 139°46'0 0.0
2018-Apr-18 23:00N 35°38' E 139°46'0 0.0
2018-Apr-18 22:30N 35°38' E 139°46'0 0.0
2018-Apr-18 22:00N 35°38' E 139°46'0 0.0
2018-Apr-18 21:30N 35°38' E 139°46'0 0.0
2018-Apr-18 21:00N 35°38' E 139°46'0 0.0
2018-Apr-18 20:28N 35°38' E 139°46'0 0.0
2018-Apr-18 20:00N 35°38' E 139°46'0 0.0
2018-Apr-18 19:30N 35°38' E 139°46'0 0.0
2018-Apr-18 19:00N 35°38' E 139°46'0 0.0
2018-Apr-18 18:30N 35°38' E 139°46'0 0.0
2018-Apr-18 18:00N 35°38' E 139°46'0 0.0
2018-Apr-18 17:30N 35°38' E 139°46'0 0.0
2018-Apr-18 17:00N 35°38' E 139°46'0 0.0
2018-Apr-18 16:30N 35°38' E 139°46'0 0.0
2018-Apr-18 16:00N 35°38' E 139°46'0 0.0
2018-Apr-18 15:30N 35°38' E 139°46'0 0.0
2018-Apr-18 15:00N 35°38' E 139°46'0 0.0
2018-Apr-18 14:31N 35°38' E 139°46'0 0.0
2018-Apr-18 13:58N 35°38' E 139°46'0 0.0
2018-Apr-18 13:30N 35°38' E 139°46'0 0.0
2018-Apr-18 13:00N 35°38' E 139°46'0 0.0
2018-Apr-18 12:30N 35°38' E 139°46'0 0.0
2018-Apr-18 12:00N 35°38' E 139°46'0 0.0
2018-Apr-18 11:30N 35°38' E 139°46'0 0.0
2018-Apr-18 11:00N 35°38' E 139°46'0 0.0
2018-Apr-18 10:29N 35°38' E 139°46'0 0.0
2018-Apr-18 10:00N 35°38' E 139°46'0 0.0
2018-Apr-18 09:30N 35°38' E 139°46'0 0.0
2018-Apr-18 09:00N 35°38' E 139°46'0 0.0
2018-Apr-18 08:29N 35°38' E 139°46'0 0.0
2018-Apr-18 08:00N 35°38' E 139°46'0 0.0
2018-Apr-18 07:28N 35°38' E 139°46'0 0.0
2018-Apr-18 06:59N 35°38' E 139°46'0 0.0
2018-Apr-18 06:30N 35°38' E 139°46'0 0.0
2018-Apr-18 06:00N 35°38' E 139°46'0 0.0
2018-Apr-18 05:30N 35°38' E 139°46'0 0.0
2018-Apr-18 05:00N 35°38' E 139°46'0 0.0
2018-Apr-18 04:30N 35°38' E 139°46'0 0.0
2018-Apr-18 04:00N 35°38' E 139°46'0 0.0
2018-Apr-18 03:30N 35°38' E 139°46'0 0.0
2018-Apr-18 03:00N 35°38' E 139°46'0 0.0
2018-Apr-18 02:20N 35°38' E 139°46'0 0.0
2018-Apr-18 01:58N 35°38' E 139°46'0 0.0
2018-Apr-18 01:30N 35°38' E 139°46'0 0.0
2018-Apr-18 01:00N 35°38' E 139°46'0 0.0
2018-Apr-18 00:30N 35°38' E 139°46'0 0.0
2018-Apr-18 00:00N 35°38' E 139°46'0 0.0
2018-Apr-17 23:30N 35°38' E 139°46'1 1.7
2018-Apr-17 23:00N 35°37' E 139°46'2 4.6
2018-Apr-17 22:29N 35°35' E 139°47'1 1.5
2018-Apr-17 22:00N 35°35' E 139°48'1 2.3
2018-Apr-17 21:30N 35°34' E 139°48'3 6.2
2018-Apr-17 21:00N 35°37' E 139°47'1 2.1
2018-Apr-17 20:30N 35°37' E 139°46'1 1.7
2018-Apr-17 20:00N 35°38' E 139°45'0 0.0
2018-Apr-17 19:30N 35°38' E 139°45'0 0.0
2018-Apr-17 19:00N 35°38' E 139°45'0 0.0
2018-Apr-17 18:30N 35°38' E 139°45'0 0.0
2018-Apr-17 18:00N 35°38' E 139°45'0 0.0
2018-Apr-17 17:30N 35°38' E 139°45'0 0.0
2018-Apr-17 17:00N 35°38' E 139°45'0 0.0
2018-Apr-17 16:30N 35°38' E 139°45'0 0.0
2018-Apr-17 16:00N 35°38' E 139°45'0 0.0
2018-Apr-17 15:30N 35°38' E 139°45'0 0.0
2018-Apr-17 15:00N 35°38' E 139°45'0 0.0
2018-Apr-17 14:29N 35°38' E 139°45'0 0.0
2018-Apr-17 13:58N 35°38' E 139°45'0 0.0
2018-Apr-17 13:28N 35°38' E 139°45'0 0.0
2018-Apr-17 13:00N 35°38' E 139°45'0 0.0
2018-Apr-17 12:30N 35°38' E 139°45'0 0.0
2018-Apr-17 11:53N 35°38' E 139°45'0 0.0
2018-Apr-17 11:30N 35°38' E 139°45'0 0.0
2018-Apr-17 11:00N 35°38' E 139°45'0 0.0
2018-Apr-17 10:28N 35°38' E 139°45'0 0.0
2018-Apr-17 09:56N 35°38' E 139°45'0 0.0
2018-Apr-17 09:28N 35°38' E 139°45'0 0.0
2018-Apr-17 09:00N 35°38' E 139°45'0 0.0
2018-Apr-17 08:30N 35°38' E 139°45'0 0.0
2018-Apr-17 08:00N 35°38' E 139°45'0 0.0
2018-Apr-17 07:30N 35°38' E 139°45'0 0.0
2018-Apr-17 06:59N 35°38' E 139°45'0 0.0
2018-Apr-17 06:29N 35°38' E 139°45'0 0.0
2018-Apr-17 06:00N 35°38' E 139°45'0 0.0
2018-Apr-17 05:30N 35°38' E 139°45'0 0.0
2018-Apr-17 04:53N 35°38' E 139°45'0 0.0
2018-Apr-17 04:25N 35°38' E 139°45'0 0.0
2018-Apr-17 03:59N 35°38' E 139°45'0 0.0
2018-Apr-17 03:30N 35°38' E 139°45'0 0.0
2018-Apr-17 02:59N 35°38' E 139°45'0 0.0
2018-Apr-17 02:30N 35°38' E 139°45'0 0.0
2018-Apr-17 02:00N 35°38' E 139°45'0 0.0
2018-Apr-17 01:29N 35°38' E 139°45'0 0.0
2018-Apr-17 01:00N 35°38' E 139°45'0 0.0
2018-Apr-17 00:30N 35°38' E 139°45'0 0.0
2018-Apr-16 23:56N 35°38' E 139°45'0 0.0
2018-Apr-16 23:29N 35°38' E 139°45'0 0.0
2018-Apr-16 22:59N 35°38' E 139°45'0 0.0
2018-Apr-16 22:29N 35°38' E 139°45'0 0.0
2018-Apr-16 21:59N 35°38' E 139°45'0 0.0
2018-Apr-16 21:30N 35°38' E 139°45'0 0.0
2018-Apr-16 20:54N 35°38' E 139°45'0 0.0
2018-Apr-16 20:31N 35°38' E 139°45'0 0.0
2018-Apr-16 20:00N 35°38' E 139°45'0 0.0
2018-Apr-16 19:30N 35°38' E 139°45'0 0.0
2018-Apr-16 19:00N 35°38' E 139°45'0 0.0
2018-Apr-16 18:30N 35°38' E 139°45'0 0.0
2018-Apr-16 18:01N 35°38' E 139°45'0 0.0
2018-Apr-16 17:30N 35°38' E 139°45'0 0.0
2018-Apr-16 17:01N 35°38' E 139°45'0 0.0
2018-Apr-16 16:29N 35°38' E 139°45'0 0.0
2018-Apr-16 15:59N 35°38' E 139°45'0 0.0
2018-Apr-16 15:30N 35°38' E 139°45'0 0.0
2018-Apr-16 15:00N 35°38' E 139°45'0 0.0
2018-Apr-16 14:30N 35°38' E 139°45'0 0.0
2018-Apr-16 13:59N 35°38' E 139°45'0 0.0
2018-Apr-16 13:29N 35°38' E 139°45'0 0.0
2018-Apr-16 12:59N 35°38' E 139°45'0 0.0
2018-Apr-16 12:30N 35°38' E 139°45'0 0.0
2018-Apr-16 12:00N 35°38' E 139°45'0 0.0
2018-Apr-16 11:30N 35°38' E 139°45'0 0.0
2018-Apr-16 11:00N 35°38' E 139°45'0 0.0
2018-Apr-16 10:28N 35°38' E 139°45'0 0.0
2018-Apr-16 10:00N 35°38' E 139°45'0 0.0
2018-Apr-16 09:30N 35°38' E 139°45'0 0.0
2018-Apr-16 08:59N 35°38' E 139°45'0 0.0
2018-Apr-16 08:25N 35°38' E 139°45'0 0.0
2018-Apr-16 08:00N 35°38' E 139°45'0 0.0
2018-Apr-16 07:27N 35°38' E 139°45'0 0.0
2018-Apr-16 06:55N 35°38' E 139°45'0 0.0
2018-Apr-16 06:27N 35°38' E 139°45'0 0.0
2018-Apr-16 06:00N 35°38' E 139°45'0 0.0
2018-Apr-16 05:30N 35°38' E 139°45'0 0.0
2018-Apr-16 04:58N 35°38' E 139°45'0 0.0
2018-Apr-16 04:29N 35°38' E 139°45'0 0.0
2018-Apr-16 03:58N 35°38' E 139°45'  
Track history (hours):
 
Tides and Currents Weather Stations Pressure Air Temp Water Temp Dewpoint Dewpoint Depression Visibility Wind Speed Wind Dir Waves Ship Positions

Kaio Maru

Last reported at 2018-Apr-26 03:28 UTC. Time now 2018-Apr-26 03:32 UTC.
Position N 35°38' E 139°45'.

Length 36 m; draft 3.2 m.

Type: Tug. MMSI: 431001455.

Date/timePositionNaut miles runAvg speedWind from/ knotsBaromVisibWave heightAir tempDewpointWater temp
2018-Apr-26 03:28N 35°38' E 139°45'0 0.0
2018-Apr-26 02:58N 35°38' E 139°45'0 0.0
2018-Apr-26 02:30N 35°38' E 139°45'0 0.0
2018-Apr-26 02:00N 35°38' E 139°45'0 0.0
2018-Apr-26 01:30N 35°38' E 139°45'0 0.0
2018-Apr-26 01:00N 35°38' E 139°45'0 0.0
2018-Apr-26 00:30N 35°38' E 139°45'0 0.0
2018-Apr-26 00:00N 35°38' E 139°45'1 2.7
2018-Apr-25 23:30N 35°37' E 139°46'1 2.0
2018-Apr-25 23:00N 35°36' E 139°47'3 5.9
2018-Apr-25 22:31N 35°34' E 139°49'4 7.2
2018-Apr-25 22:00N 35°37' E 139°46'2 3.2
2018-Apr-25 21:30N 35°38' E 139°45'0 0.0
2018-Apr-25 21:00N 35°38' E 139°45'0 0.0
2018-Apr-25 20:30N 35°38' E 139°45'0 0.0
2018-Apr-25 20:00N 35°38' E 139°45'0 0.0
2018-Apr-25 19:30N 35°38' E 139°45'0 0.0
2018-Apr-25 19:00N 35°38' E 139°45'0 0.0
2018-Apr-25 18:30N 35°38' E 139°45'0 0.0
2018-Apr-25 18:00N 35°38' E 139°45'0 0.0
2018-Apr-25 17:30N 35°38' E 139°45'0 0.0
2018-Apr-25 17:00N 35°38' E 139°45'0 0.0
2018-Apr-25 16:30N 35°38' E 139°45'0 0.0
2018-Apr-25 16:00N 35°38' E 139°45'0 0.0
2018-Apr-25 15:30N 35°38' E 139°45'0 0.0
2018-Apr-25 15:00N 35°38' E 139°45'0 0.0
2018-Apr-25 14:30N 35°38' E 139°45'0 0.0
2018-Apr-25 14:00N 35°38' E 139°45'0 0.0
2018-Apr-25 13:30N 35°38' E 139°45'0 0.0
2018-Apr-25 13:00N 35°38' E 139°45'0 0.0
2018-Apr-25 12:30N 35°38' E 139°45'0 0.0
2018-Apr-25 12:00N 35°38' E 139°45'0 0.0
2018-Apr-25 11:30N 35°38' E 139°45'0 0.0
2018-Apr-25 11:00N 35°38' E 139°45'0 0.0
2018-Apr-25 10:30N 35°38' E 139°45'1 1.9
2018-Apr-25 10:01N 35°37' E 139°46'3 6.9
2018-Apr-25 09:31N 35°35' E 139°48'0 0.8
2018-Apr-25 09:00N 35°34' E 139°48'4 7.7
2018-Apr-25 08:30N 35°38' E 139°46'0 0.9
2018-Apr-25 07:58N 35°38' E 139°45'0 0.0
2018-Apr-25 07:30N 35°38' E 139°45'0 0.0
2018-Apr-25 06:55N 35°38' E 139°45'0 0.0
2018-Apr-25 06:29N 35°38' E 139°45'0 0.0
2018-Apr-25 05:53N 35°38' E 139°45'0 0.0
2018-Apr-25 05:30N 35°38' E 139°45'0 0.0
2018-Apr-25 05:00N 35°38' E 139°45'0 0.0
2018-Apr-25 04:30N 35°38' E 139°45'0 0.0
2018-Apr-25 04:00N 35°38' E 139°45'0 0.0
2018-Apr-25 03:30N 35°38' E 139°45'0 0.0
2018-Apr-25 03:00N 35°38' E 139°45'0 0.0
2018-Apr-25 02:30N 35°38' E 139°45'0 0.0
2018-Apr-25 01:56N 35°38' E 139°45'0 0.0
2018-Apr-25 01:30N 35°38' E 139°45'0 0.0
2018-Apr-25 01:00N 35°38' E 139°45'0 0.0
2018-Apr-25 00:30N 35°38' E 139°45'0 0.0
2018-Apr-24 23:58N 35°38' E 139°45'0 0.0
2018-Apr-24 23:28N 35°38' E 139°45'0 0.0
2018-Apr-24 23:00N 35°38' E 139°45'2 4.0
2018-Apr-24 22:30N 35°36' E 139°46'1 2.2
2018-Apr-24 21:59N 35°36' E 139°47'0 0.3
2018-Apr-24 21:30N 35°36' E 139°48'1 2.5
2018-Apr-24 21:00N 35°37' E 139°47'1 1.3
2018-Apr-24 20:30N 35°37' E 139°48'1 1.4
2018-Apr-24 20:00N 35°36' E 139°47'1 1.9
2018-Apr-24 19:31N 35°37' E 139°46'2 2.6
2018-Apr-24 18:56N 35°38' E 139°45'0 0.0
2018-Apr-24 18:29N 35°38' E 139°45'0 0.0
2018-Apr-24 17:29N 35°38' E 139°45'0 0.0
2018-Apr-24 16:53N 35°38' E 139°45'0 0.0
2018-Apr-24 16:30N 35°38' E 139°45'0 0.0
2018-Apr-24 15:59N 35°38' E 139°45'0 0.0
2018-Apr-24 15:26N 35°38' E 139°45'0 0.0
2018-Apr-24 15:00N 35°38' E 139°45'0 0.0
2018-Apr-24 14:27N 35°38' E 139°45'0 0.0
2018-Apr-24 14:01N 35°38' E 139°45'0 0.0
2018-Apr-24 13:31N 35°38' E 139°45'0 0.0
2018-Apr-24 12:55N 35°38' E 139°45'0 0.0
2018-Apr-24 11:22N 35°38' E 139°45'0 0.0
2018-Apr-24 11:00N 35°38' E 139°45'0 0.0
2018-Apr-24 10:30N 35°38' E 139°45'0 0.0
2018-Apr-24 10:00N 35°38' E 139°45'0 0.0
2018-Apr-24 09:30N 35°38' E 139°45'0 0.0
2018-Apr-24 08:55N 35°38' E 139°45'0 0.0
2018-Apr-24 08:30N 35°38' E 139°45'0 0.0
2018-Apr-24 07:55N 35°38' E 139°45'0 0.0
2018-Apr-24 07:26N 35°38' E 139°45'0 0.0
2018-Apr-24 06:42N 35°38' E 139°45'0 0.0
2018-Apr-24 06:25N 35°38' E 139°45'0 0.0
2018-Apr-24 05:46N 35°38' E 139°45'0 0.0
2018-Apr-24 05:26N 35°38' E 139°45'0 0.0
2018-Apr-24 05:00N 35°38' E 139°45'0 0.0
2018-Apr-24 04:30N 35°38' E 139°45'0 0.0
2018-Apr-24 03:58N 35°38' E 139°45'0 0.0
2018-Apr-24 03:29N 35°38' E 139°45'0 0.0
2018-Apr-24 02:58N 35°38' E 139°45'0 0.0
2018-Apr-24 02:30N 35°38' E 139°45'0 0.0
2018-Apr-24 01:57N 35°38' E 139°45'0 0.0
2018-Apr-24 01:30N 35°38' E 139°45'0 0.0
2018-Apr-24 01:00N 35°38' E 139°45'0 0.0
2018-Apr-24 00:30N 35°38' E 139°45'0 0.0
2018-Apr-23 23:59N 35°38' E 139°45'0 0.0
2018-Apr-23 23:30N 35°38' E 139°45'0 0.0
2018-Apr-23 23:00N 35°38' E 139°45'0 0.0
2018-Apr-23 22:30N 35°38' E 139°45'0 0.0
2018-Apr-23 22:00N 35°38' E 139°45'0 0.0
2018-Apr-23 21:30N 35°38' E 139°45'0 0.0
2018-Apr-23 21:00N 35°38' E 139°45'0 0.0
2018-Apr-23 20:30N 35°38' E 139°45'0 0.0
2018-Apr-23 20:00N 35°38' E 139°45'0 0.0
2018-Apr-23 19:30N 35°38' E 139°45'0 0.0
2018-Apr-23 19:00N 35°38' E 139°45'0 0.0
2018-Apr-23 18:30N 35°38' E 139°45'0 0.0
2018-Apr-23 18:00N 35°38' E 139°45'0 0.0
2018-Apr-23 17:30N 35°38' E 139°45'0 0.0
2018-Apr-23 17:00N 35°38' E 139°45'0 0.0
2018-Apr-23 16:29N 35°38' E 139°45'0 0.0
2018-Apr-23 16:00N 35°38' E 139°45'0 0.0
2018-Apr-23 15:30N 35°38' E 139°45'0 0.0
2018-Apr-23 15:00N 35°38' E 139°45'0 0.0
2018-Apr-23 14:30N 35°38' E 139°45'0 0.0
2018-Apr-23 14:00N 35°38' E 139°45'0 0.0
2018-Apr-23 13:30N 35°38' E 139°45'0 0.0
2018-Apr-23 13:00N 35°38' E 139°45'0 0.0
2018-Apr-23 12:30N 35°38' E 139°45'0 0.0
2018-Apr-23 12:00N 35°38' E 139°45'0 0.0
2018-Apr-23 11:30N 35°38' E 139°45'0 0.0
2018-Apr-23 11:00N 35°38' E 139°45'0 0.0
2018-Apr-23 10:30N 35°38' E 139°45'0 0.0
2018-Apr-23 10:00N 35°38' E 139°45'0 0.0
2018-Apr-23 09:29N 35°38' E 139°45'0 0.0
2018-Apr-23 08:59N 35°38' E 139°45'0 0.0
2018-Apr-23 08:30N 35°38' E 139°45'0 0.0
2018-Apr-23 08:00N 35°38' E 139°45'0 0.0
2018-Apr-23 07:30N 35°38' E 139°45'0 0.0
2018-Apr-23 07:00N 35°38' E 139°45'0 0.0
2018-Apr-23 06:30N 35°38' E 139°45'0 0.0
2018-Apr-23 06:00N 35°38' E 139°45'0 0.0
2018-Apr-23 05:30N 35°38' E 139°45'0 0.0
2018-Apr-23 05:00N 35°38' E 139°45'0 0.0
2018-Apr-23 04:30N 35°38' E 139°45'0 0.0
2018-Apr-23 04:00N 35°38' E 139°45'0 0.0
2018-Apr-23 03:30N 35°38' E 139°45'0 0.0
2018-Apr-23 02:58N 35°38' E 139°45'0 0.0
2018-Apr-23 02:30N 35°38' E 139°45'0 0.0
2018-Apr-23 02:00N 35°38' E 139°45'0 0.0
2018-Apr-23 01:29N 35°38' E 139°45'0 0.0
2018-Apr-23 01:00N 35°38' E 139°45'0 0.0
2018-Apr-23 00:30N 35°38' E 139°45'0 0.0
2018-Apr-22 23:59N 35°38' E 139°45'2 3.9
2018-Apr-22 23:30N 35°36' E 139°46'0 0.2
2018-Apr-22 23:00N 35°36' E 139°46'3 5.0
2018-Apr-22 22:30N 35°34' E 139°48'1 3.0
2018-Apr-22 22:00N 35°35' E 139°47'3 5.9
2018-Apr-22 21:30N 35°38' E 139°46'0 0.0
2018-Apr-22 20:58N 35°38' E 139°46'0 0.0
2018-Apr-22 20:30N 35°38' E 139°46'0 0.0
2018-Apr-22 20:00N 35°38' E 139°46'0 0.0
2018-Apr-22 19:30N 35°38' E 139°46'0 0.0
2018-Apr-22 19:00N 35°38' E 139°46'0 0.0
2018-Apr-22 18:30N 35°38' E 139°46'0 0.0
2018-Apr-22 18:00N 35°38' E 139°46'0 0.0
2018-Apr-22 17:30N 35°38' E 139°46'0 0.0
2018-Apr-22 17:00N 35°38' E 139°46'0 0.0
2018-Apr-22 16:30N 35°38' E 139°46'0 0.0
2018-Apr-22 16:00N 35°38' E 139°46'0 0.0
2018-Apr-22 15:30N 35°38' E 139°46'0 0.0
2018-Apr-22 15:00N 35°38' E 139°46'0 0.0
2018-Apr-22 14:28N 35°38' E 139°46'0 0.0
2018-Apr-22 14:00N 35°38' E 139°46'0 0.0
2018-Apr-22 13:30N 35°38' E 139°46'0 0.0
2018-Apr-22 12:57N 35°38' E 139°46'0 0.0
2018-Apr-22 12:30N 35°38' E 139°46'0 0.0
2018-Apr-22 12:00N 35°38' E 139°46'0 0.0
2018-Apr-22 11:30N 35°38' E 139°46'0 0.0
2018-Apr-22 11:00N 35°38' E 139°46'0 0.0
2018-Apr-22 10:29N 35°38' E 139°46'2 3.5
2018-Apr-22 10:00N 35°37' E 139°46'0 0.2
2018-Apr-22 09:30N 35°37' E 139°46'1 2.9
2018-Apr-22 09:00N 35°36' E 139°47'4 7.5
2018-Apr-22 08:31N 35°33' E 139°51'612.8
2018-Apr-22 08:00N 35°38' E 139°46'0 0.3
2018-Apr-22 07:28N 35°38' E 139°45'0 0.0
2018-Apr-22 07:00N 35°38' E 139°45'0 0.0
2018-Apr-22 06:30N 35°38' E 139°45'0 0.0
2018-Apr-22 06:00N 35°38' E 139°45'0 0.0
2018-Apr-22 05:30N 35°38' E 139°45'0 0.0
2018-Apr-22 05:00N 35°38' E 139°45'0 0.0
2018-Apr-22 04:30N 35°38' E 139°45'0 0.0
2018-Apr-22 03:59N 35°38' E 139°45'0 0.0
2018-Apr-22 03:30N 35°38' E 139°45'0 0.0
2018-Apr-22 02:58N 35°38' E 139°45'0 0.0
2018-Apr-22 02:30N 35°38' E 139°45'0 0.0
2018-Apr-22 01:54N 35°38' E 139°45'0 0.0
2018-Apr-22 01:30N 35°38' E 139°45'0 0.0
2018-Apr-22 00:58N 35°38' E 139°45'0 0.0
2018-Apr-22 00:30N 35°38' E 139°45'0 0.0
2018-Apr-21 23:56N 35°38' E 139°45'0 0.0
2018-Apr-21 23:29N 35°38' E 139°45'0 0.0
2018-Apr-21 23:00N 35°38' E 139°45'0 0.0
2018-Apr-21 22:27N 35°38' E 139°45'0 0.0
2018-Apr-21 22:00N 35°38' E 139°45'0 0.0
2018-Apr-21 21:25N 35°38' E 139°45'0 0.0
2018-Apr-21 20:58N 35°38' E 139°45'0 0.0
2018-Apr-21 20:30N 35°38' E 139°45'0 0.0
2018-Apr-21 20:00N 35°38' E 139°45'0 0.0
2018-Apr-21 19:30N 35°38' E 139°45'0 0.0
2018-Apr-21 19:00N 35°38' E 139°45'0 0.0
2018-Apr-21 18:30N 35°38' E 139°45'0 0.0
2018-Apr-21 18:00N 35°38' E 139°45'0 0.0
2018-Apr-21 17:30N 35°38' E 139°45'0 0.0
2018-Apr-21 16:59N 35°38' E 139°45'0 0.0
2018-Apr-21 16:30N 35°38' E 139°45'0 0.0
2018-Apr-21 15:59N 35°38' E 139°45'0 0.0
2018-Apr-21 15:29N 35°38' E 139°45'0 0.0
2018-Apr-21 15:00N 35°38' E 139°45'0 0.0
2018-Apr-21 14:28N 35°38' E 139°45'0 0.0
2018-Apr-21 13:59N 35°38' E 139°45'0 0.0
2018-Apr-21 13:26N 35°38' E 139°45'0 0.0
2018-Apr-21 13:00N 35°38' E 139°45'0 0.0
2018-Apr-21 12:30N 35°38' E 139°45'0 0.0
2018-Apr-21 12:00N 35°38' E 139°45'3 5.1
2018-Apr-21 11:30N 35°36' E 139°47'0 1.0
2018-Apr-21 11:00N 35°36' E 139°47'1 2.2
2018-Apr-21 10:30N 35°37' E 139°46'2 3.5
2018-Apr-21 10:00N 35°38' E 139°46'2 3.9
2018-Apr-21 09:29N 35°36' E 139°46'1 2.8
2018-Apr-21 09:00N 35°35' E 139°47'2 4.7
2018-Apr-21 08:30N 35°34' E 139°50'5 9.5
2018-Apr-21 08:00N 35°38' E 139°46'1 1.0
2018-Apr-21 07:23N 35°38' E 139°45'0 0.0
2018-Apr-21 06:48N 35°38' E 139°45'0 0.0
2018-Apr-21 06:29N 35°38' E 139°45'0 0.0
2018-Apr-21 03:50N 35°38' E 139°45'0 0.0
2018-Apr-21 03:29N 35°38' E 139°45'0 0.0
2018-Apr-21 02:56N 35°38' E 139°45'0 0.0
2018-Apr-21 02:22N 35°38' E 139°45'0 0.0
2018-Apr-21 01:54N 35°38' E 139°45'0 0.0
2018-Apr-21 01:30N 35°38' E 139°45'0 0.0
2018-Apr-21 00:59N 35°38' E 139°45'0 0.0
2018-Apr-21 00:30N 35°38' E 139°45'0 0.0
2018-Apr-21 00:00N 35°38' E 139°45'1 2.5
2018-Apr-20 23:30N 35°37' E 139°46'1 2.5
2018-Apr-20 23:00N 35°36' E 139°46'2 3.1
2018-Apr-20 22:30N 35°35' E 139°48'1 1.9
2018-Apr-20 22:01N 35°36' E 139°47'3 5.7
2018-Apr-20 21:30N 35°38' E 139°46'0 0.0
2018-Apr-20 21:00N 35°38' E 139°46'0 0.0
2018-Apr-20 20:30N 35°38' E 139°46'0 0.0
2018-Apr-20 20:00N 35°38' E 139°46'0 0.0
2018-Apr-20 19:28N 35°38' E 139°46'0 0.0
2018-Apr-20 19:00N 35°38' E 139°46'0 0.0
2018-Apr-20 18:28N 35°38' E 139°46'0 0.0
2018-Apr-20 18:00N 35°38' E 139°46'0 0.0
2018-Apr-20 17:30N 35°38' E 139°46'0 0.0
2018-Apr-20 17:00N 35°38' E 139°46'0 0.0
2018-Apr-20 16:30N 35°38' E 139°46'0 0.0
2018-Apr-20 16:00N 35°38' E 139°46'0 0.0
2018-Apr-20 15:30N 35°38' E 139°46'0 0.0
2018-Apr-20 15:00N 35°38' E 139°46'0 0.0
2018-Apr-20 14:30N 35°38' E 139°46'0 0.0
2018-Apr-20 14:00N 35°38' E 139°46'0 0.0
2018-Apr-20 13:30N 35°38' E 139°46'0 0.0
2018-Apr-20 13:00N 35°38' E 139°46'0 0.0
2018-Apr-20 12:30N 35°38' E 139°46'0 0.0
2018-Apr-20 12:00N 35°38' E 139°46'0 0.0
2018-Apr-20 11:29N 35°38' E 139°46'0 0.0
2018-Apr-20 11:00N 35°38' E 139°46'0 0.0
2018-Apr-20 10:30N 35°38' E 139°46'0 0.0
2018-Apr-20 10:00N 35°38' E 139°46'0 0.0
2018-Apr-20 09:30N 35°38' E 139°46'0 0.0
2018-Apr-20 09:00N 35°38' E 139°46'0 0.0
2018-Apr-20 08:30N 35°38' E 139°46'0 0.0
2018-Apr-20 08:00N 35°38' E 139°46'0 0.0
2018-Apr-20 07:30N 35°38' E 139°46'0 0.0
2018-Apr-20 06:55N 35°38' E 139°46'0 0.0
2018-Apr-20 06:30N 35°38' E 139°46'0 0.0
2018-Apr-20 05:59N 35°38' E 139°46'0 0.0
2018-Apr-20 05:28N 35°38' E 139°46'1 1.5
2018-Apr-20 05:00N 35°39' E 139°46'0 0.2
2018-Apr-20 04:30N 35°39' E 139°46'1 1.0
2018-Apr-20 03:41N 35°38' E 139°46'0 0.0
2018-Apr-20 03:30N 35°38' E 139°46'0 0.0
2018-Apr-20 03:00N 35°38' E 139°46'0 0.0
2018-Apr-20 02:30N 35°38' E 139°46'0 0.0
2018-Apr-20 02:00N 35°38' E 139°46'0 0.0
2018-Apr-20 01:30N 35°38' E 139°46'0 0.0
2018-Apr-20 01:00N 35°38' E 139°46'0 0.7
2018-Apr-20 00:30N 35°39' E 139°46'0 0.7
2018-Apr-19 23:58N 35°38' E 139°45'0 0.0
2018-Apr-19 23:29N 35°38' E 139°45'0 0.0
2018-Apr-19 23:01N 35°38' E 139°45'0 0.0
2018-Apr-19 22:30N 35°38' E 139°45'0 0.0
2018-Apr-19 22:00N 35°38' E 139°45'0 0.0
2018-Apr-19 21:29N 35°38' E 139°45'0 0.0
2018-Apr-19 20:58N 35°38' E 139°45'0 0.0
2018-Apr-19 20:22N 35°38' E 139°45'0 0.0
2018-Apr-19 19:55N 35°38' E 139°45'0 0.0
2018-Apr-19 19:30N 35°38' E 139°45'0 0.0
2018-Apr-19 18:57N 35°38' E 139°45'0 0.0
2018-Apr-19 18:30N 35°38' E 139°45'0 0.0
2018-Apr-19 18:00N 35°38' E 139°45'0 0.0
2018-Apr-19 17:27N 35°38' E 139°45'0 0.0
2018-Apr-19 16:59N 35°38' E 139°45'0 0.0
2018-Apr-19 16:28N 35°38' E 139°45'0 0.0
2018-Apr-19 15:59N 35°38' E 139°45'0 0.0
2018-Apr-19 15:30N 35°38' E 139°45'0 0.0
2018-Apr-19 15:00N 35°38' E 139°45'0 0.0
2018-Apr-19 14:29N 35°38' E 139°45'0 0.0
2018-Apr-19 14:00N 35°38' E 139°45'0 0.0
2018-Apr-19 13:29N 35°38' E 139°45'0 0.0
2018-Apr-19 13:00N 35°38' E 139°45'0 0.0
2018-Apr-19 12:28N 35°38' E 139°45'0 0.0
2018-Apr-19 11:59N 35°38' E 139°45'0 0.0
2018-Apr-19 11:29N 35°38' E 139°45'2 4.8
2018-Apr-19 11:00N 35°36' E 139°46'0 0.8
2018-Apr-19 10:30N 35°36' E 139°46'0 0.5
2018-Apr-19 10:00N 35°36' E 139°47'1 2.1
2018-Apr-19 09:30N 35°35' E 139°48'1 1.4
2018-Apr-19 09:00N 35°34' E 139°48'3 5.8
2018-Apr-19 08:30N 35°37' E 139°46'2 1.4
2018-Apr-19 07:27N 35°38' E 139°46'0 0.0
2018-Apr-19 05:48N 35°38' E 139°46'0 0.0
2018-Apr-19 05:28N 35°38' E 139°46'0 0.0
2018-Apr-19 05:00N 35°38' E 139°46'0 0.0
2018-Apr-19 04:30N 35°38' E 139°46'0 0.0
2018-Apr-19 03:57N 35°38' E 139°46'0 0.0
2018-Apr-19 03:28N 35°38' E 139°46'0 0.0
2018-Apr-19 03:00N 35°38' E 139°46'0 0.0
2018-Apr-19 02:30N 35°38' E 139°46'0 0.0
2018-Apr-19 01:59N 35°38' E 139°46'0 0.0
2018-Apr-19 01:30N 35°38' E 139°46'0 0.0
2018-Apr-19 00:58N 35°38' E 139°46'0 0.0
2018-Apr-19 00:30N 35°38' E 139°46'0 0.0
2018-Apr-19 00:00N 35°38' E 139°46'0 0.0
2018-Apr-18 23:30N 35°38' E 139°46'0 0.0
2018-Apr-18 23:00N 35°38' E 139°46'0 0.0
2018-Apr-18 22:30N 35°38' E 139°46'0 0.0
2018-Apr-18 22:00N 35°38' E 139°46'0 0.0
2018-Apr-18 21:30N 35°38' E 139°46'0 0.0
2018-Apr-18 21:00N 35°38' E 139°46'0 0.0
2018-Apr-18 20:28N 35°38' E 139°46'0 0.0
2018-Apr-18 20:00N 35°38' E 139°46'0 0.0
2018-Apr-18 19:30N 35°38' E 139°46'0 0.0
2018-Apr-18 19:00N 35°38' E 139°46'0 0.0
2018-Apr-18 18:30N 35°38' E 139°46'0 0.0
2018-Apr-18 18:00N 35°38' E 139°46'0 0.0
2018-Apr-18 17:30N 35°38' E 139°46'0 0.0
2018-Apr-18 17:00N 35°38' E 139°46'0 0.0
2018-Apr-18 16:30N 35°38' E 139°46'0 0.0
2018-Apr-18 16:00N 35°38' E 139°46'0 0.0
2018-Apr-18 15:30N 35°38' E 139°46'0 0.0
2018-Apr-18 15:00N 35°38' E 139°46'0 0.0
2018-Apr-18 14:31N 35°38' E 139°46'0 0.0
2018-Apr-18 13:58N 35°38' E 139°46'0 0.0
2018-Apr-18 13:30N 35°38' E 139°46'0 0.0
2018-Apr-18 13:00N 35°38' E 139°46'0 0.0
2018-Apr-18 12:30N 35°38' E 139°46'0 0.0
2018-Apr-18 12:00N 35°38' E 139°46'0 0.0
2018-Apr-18 11:30N 35°38' E 139°46'0 0.0
2018-Apr-18 11:00N 35°38' E 139°46'0 0.0
2018-Apr-18 10:29N 35°38' E 139°46'0 0.0
2018-Apr-18 10:00N 35°38' E 139°46'0 0.0
2018-Apr-18 09:30N 35°38' E 139°46'0 0.0
2018-Apr-18 09:00N 35°38' E 139°46'0 0.0
2018-Apr-18 08:29N 35°38' E 139°46'0 0.0
2018-Apr-18 08:00N 35°38' E 139°46'0 0.0
2018-Apr-18 07:28N 35°38' E 139°46'0 0.0
2018-Apr-18 06:59N 35°38' E 139°46'0 0.0
2018-Apr-18 06:30N 35°38' E 139°46'0 0.0
2018-Apr-18 06:00N 35°38' E 139°46'0 0.0
2018-Apr-18 05:30N 35°38' E 139°46'0 0.0
2018-Apr-18 05:00N 35°38' E 139°46'0 0.0
2018-Apr-18 04:30N 35°38' E 139°46'0 0.0
2018-Apr-18 04:00N 35°38' E 139°46'0 0.0
2018-Apr-18 03:30N 35°38' E 139°46'0 0.0
2018-Apr-18 03:00N 35°38' E 139°46'0 0.0
2018-Apr-18 02:20N 35°38' E 139°46'0 0.0
2018-Apr-18 01:58N 35°38' E 139°46'0 0.0
2018-Apr-18 01:30N 35°38' E 139°46'0 0.0
2018-Apr-18 01:00N 35°38' E 139°46'0 0.0
2018-Apr-18 00:30N 35°38' E 139°46'0 0.0
2018-Apr-18 00:00N 35°38' E 139°46'0 0.0
2018-Apr-17 23:30N 35°38' E 139°46'1 1.7
2018-Apr-17 23:00N 35°37' E 139°46'2 4.6
2018-Apr-17 22:29N 35°35' E 139°47'1 1.5
2018-Apr-17 22:00N 35°35' E 139°48'1 2.3
2018-Apr-17 21:30N 35°34' E 139°48'3 6.2
2018-Apr-17 21:00N 35°37' E 139°47'1 2.1
2018-Apr-17 20:30N 35°37' E 139°46'1 1.7
2018-Apr-17 20:00N 35°38' E 139°45'0 0.0
2018-Apr-17 19:30N 35°38' E 139°45'0 0.0
2018-Apr-17 19:00N 35°38' E 139°45'0 0.0
2018-Apr-17 18:30N 35°38' E 139°45'0 0.0
2018-Apr-17 18:00N 35°38' E 139°45'0 0.0
2018-Apr-17 17:30N 35°38' E 139°45'0 0.0
2018-Apr-17 17:00N 35°38' E 139°45'0 0.0
2018-Apr-17 16:30N 35°38' E 139°45'0 0.0
2018-Apr-17 16:00N 35°38' E 139°45'0 0.0
2018-Apr-17 15:30N 35°38' E 139°45'0 0.0
2018-Apr-17 15:00N 35°38' E 139°45'0 0.0
2018-Apr-17 14:29N 35°38' E 139°45'0 0.0
2018-Apr-17 13:58N 35°38' E 139°45'0 0.0
2018-Apr-17 13:28N 35°38' E 139°45'0 0.0
2018-Apr-17 13:00N 35°38' E 139°45'0 0.0
2018-Apr-17 12:30N 35°38' E 139°45'0 0.0
2018-Apr-17 11:53N 35°38' E 139°45'0 0.0
2018-Apr-17 11:30N 35°38' E 139°45'0 0.0
2018-Apr-17 11:00N 35°38' E 139°45'0 0.0
2018-Apr-17 10:28N 35°38' E 139°45'0 0.0
2018-Apr-17 09:56N 35°38' E 139°45'0 0.0
2018-Apr-17 09:28N 35°38' E 139°45'0 0.0
2018-Apr-17 09:00N 35°38' E 139°45'0 0.0
2018-Apr-17 08:30N 35°38' E 139°45'0 0.0
2018-Apr-17 08:00N 35°38' E 139°45'0 0.0
2018-Apr-17 07:30N 35°38' E 139°45'0 0.0
2018-Apr-17 06:59N 35°38' E 139°45'0 0.0
2018-Apr-17 06:29N 35°38' E 139°45'0 0.0
2018-Apr-17 06:00N 35°38' E 139°45'0 0.0
2018-Apr-17 05:30N 35°38' E 139°45'0 0.0
2018-Apr-17 04:53N 35°38' E 139°45'0 0.0
2018-Apr-17 04:25N 35°38' E 139°45'0 0.0
2018-Apr-17 03:59N 35°38' E 139°45'0 0.0
2018-Apr-17 03:30N 35°38' E 139°45'0 0.0
2018-Apr-17 02:59N 35°38' E 139°45'0 0.0
2018-Apr-17 02:30N 35°38' E 139°45'0 0.0
2018-Apr-17 02:00N 35°38' E 139°45'0 0.0
2018-Apr-17 01:29N 35°38' E 139°45'0 0.0
2018-Apr-17 01:00N 35°38' E 139°45'0 0.0
2018-Apr-17 00:30N 35°38' E 139°45'0 0.0
2018-Apr-16 23:56N 35°38' E 139°45'0 0.0
2018-Apr-16 23:29N 35°38' E 139°45'0 0.0
2018-Apr-16 22:59N 35°38' E 139°45'0 0.0
2018-Apr-16 22:29N 35°38' E 139°45'0 0.0
2018-Apr-16 21:59N 35°38' E 139°45'0 0.0
2018-Apr-16 21:30N 35°38' E 139°45'0 0.0
2018-Apr-16 20:54N 35°38' E 139°45'0 0.0
2018-Apr-16 20:31N 35°38' E 139°45'0 0.0
2018-Apr-16 20:00N 35°38' E 139°45'0 0.0
2018-Apr-16 19:30N 35°38' E 139°45'0 0.0
2018-Apr-16 19:00N 35°38' E 139°45'0 0.0
2018-Apr-16 18:30N 35°38' E 139°45'0 0.0
2018-Apr-16 18:01N 35°38' E 139°45'0 0.0
2018-Apr-16 17:30N 35°38' E 139°45'0 0.0
2018-Apr-16 17:01N 35°38' E 139°45'0 0.0
2018-Apr-16 16:29N 35°38' E 139°45'0 0.0
2018-Apr-16 15:59N 35°38' E 139°45'0 0.0
2018-Apr-16 15:30N 35°38' E 139°45'0 0.0
2018-Apr-16 15:00N 35°38' E 139°45'0 0.0
2018-Apr-16 14:30N 35°38' E 139°45'0 0.0
2018-Apr-16 13:59N 35°38' E 139°45'0 0.0
2018-Apr-16 13:29N 35°38' E 139°45'0 0.0
2018-Apr-16 12:59N 35°38' E 139°45'0 0.0
2018-Apr-16 12:30N 35°38' E 139°45'0 0.0
2018-Apr-16 12:00N 35°38' E 139°45'0 0.0
2018-Apr-16 11:30N 35°38' E 139°45'0 0.0
2018-Apr-16 11:00N 35°38' E 139°45'0 0.0
2018-Apr-16 10:28N 35°38' E 139°45'0 0.0
2018-Apr-16 10:00N 35°38' E 139°45'0 0.0
2018-Apr-16 09:30N 35°38' E 139°45'0 0.0
2018-Apr-16 08:59N 35°38' E 139°45'0 0.0
2018-Apr-16 08:25N 35°38' E 139°45'0 0.0
2018-Apr-16 08:00N 35°38' E 139°45'0 0.0
2018-Apr-16 07:27N 35°38' E 139°45'0 0.0
2018-Apr-16 06:55N 35°38' E 139°45'0 0.0
2018-Apr-16 06:27N 35°38' E 139°45'0 0.0
2018-Apr-16 06:00N 35°38' E 139°45'0 0.0
2018-Apr-16 05:30N 35°38' E 139°45'0 0.0
2018-Apr-16 04:58N 35°38' E 139°45'0 0.0
2018-Apr-16 04:29N 35°38' E 139°45'0 0.0
2018-Apr-16 03:58N 35°38' E 139°45'  

Dump ship's entire track history